createdAt,value
2018-04-19T00:02:00.129Z,17.70
2018-04-19T00:04:27.674Z,17.70
2018-04-19T00:06:55.229Z,17.70
2018-04-19T00:09:22.757Z,17.70
2018-04-19T00:11:51.127Z,17.90
2018-04-19T00:14:18.646Z,17.80
2018-04-19T00:16:47.157Z,17.70
2018-04-19T00:19:15.389Z,17.70
2018-04-19T00:21:43.897Z,17.70
2018-04-19T00:24:13.425Z,17.70
2018-04-19T00:26:40.961Z,17.70
2018-04-19T00:29:08.506Z,17.60
2018-04-19T00:31:36.061Z,17.70
2018-04-19T00:34:04.562Z,17.80
2018-04-19T00:36:32.132Z,17.70
2018-04-19T00:38:59.681Z,17.70
2018-04-19T00:41:27.237Z,17.60
2018-04-19T00:43:54.762Z,17.70
2018-04-19T00:46:22.289Z,17.40
2018-04-19T00:48:50.641Z,17.60
2018-04-19T00:51:18.192Z,17.60
2018-04-19T00:53:45.749Z,17.70
2018-04-19T00:56:13.294Z,17.70
2018-04-19T00:58:40.865Z,17.70
2018-04-19T01:01:08.402Z,17.30
2018-04-19T01:03:36.891Z,17.10
2018-04-19T01:06:04.440Z,17.20
2018-04-19T01:08:31.982Z,17.00
2018-04-19T01:11:00.300Z,17.20
2018-04-19T01:13:28.784Z,17.20
2018-04-19T01:15:56.340Z,17.40
2018-04-19T01:18:23.863Z,17.40
2018-04-19T01:20:51.405Z,17.40
2018-04-19T01:23:18.958Z,17.40
2018-04-19T01:25:46.518Z,17.30
2018-04-19T01:28:14.848Z,17.30
2018-04-19T01:30:42.712Z,17.30
2018-04-19T01:33:10.277Z,17.50
2018-04-19T01:35:49.512Z,17.50
2018-04-19T01:38:17.070Z,17.50
2018-04-19T01:40:44.592Z,17.00
2018-04-19T01:43:12.139Z,16.50
2018-04-19T01:45:39.693Z,16.00
2018-04-19T01:48:08.012Z,15.30
2018-04-19T01:50:35.566Z,15.20
2018-04-19T01:53:03.107Z,15.10
2018-04-19T01:55:30.666Z,15.00
2018-04-19T01:57:58.206Z,14.80
2018-04-19T02:00:25.738Z,14.60
2018-04-19T02:02:53.312Z,14.60
2018-04-19T02:05:20.857Z,14.50
2018-04-19T02:07:48.414Z,14.30
2018-04-19T02:10:15.961Z,14.20
2018-04-19T02:12:43.521Z,14.10
2018-04-19T02:15:11.055Z,14.00
2018-04-19T02:17:38.611Z,14.00
2018-04-19T02:20:06.409Z,13.80
2018-04-19T02:22:33.942Z,13.70
2018-04-19T02:25:01.497Z,13.50
2018-04-19T02:27:29.040Z,13.40
2018-04-19T02:29:56.597Z,13.30
2018-04-19T02:32:24.129Z,13.20
2018-04-19T02:34:52.633Z,13.20
2018-04-19T02:37:20.191Z,13.10
2018-04-19T02:39:47.769Z,13.10
2018-04-19T02:42:15.321Z,13.30
2018-04-19T02:44:42.890Z,13.70
2018-04-19T02:47:10.416Z,14.00
2018-04-19T02:49:39.950Z,14.40
2018-04-19T02:52:08.442Z,14.60
2018-04-19T02:54:35.992Z,14.50
2018-04-19T02:57:03.553Z,14.10
2018-04-19T02:59:31.124Z,13.70
2018-04-19T03:01:58.663Z,13.50
2018-04-19T03:04:26.209Z,13.30
2018-04-19T03:06:53.737Z,13.20
2018-04-19T03:09:22.026Z,13.00
2018-04-19T03:11:50.346Z,12.90
2018-04-19T03:14:17.876Z,12.90
2018-04-19T03:16:45.437Z,12.80
2018-04-19T03:19:12.964Z,12.80
2018-04-19T03:21:40.753Z,12.70
2018-04-19T03:24:08.301Z,12.60
2018-04-19T03:26:36.663Z,12.40
2018-04-19T03:29:04.232Z,12.40
2018-04-19T03:31:31.798Z,12.40
2018-04-19T03:34:00.149Z,12.50
2018-04-19T03:36:27.685Z,12.40
2018-04-19T03:38:55.252Z,12.50
2018-04-19T03:41:22.769Z,12.40
2018-04-19T03:43:50.328Z,12.30
2018-04-19T03:46:18.163Z,12.40
2018-04-19T03:48:45.727Z,12.40
2018-04-19T03:51:14.080Z,12.40
2018-04-19T03:53:41.627Z,12.30
2018-04-19T03:56:09.173Z,12.30
2018-04-19T03:58:36.689Z,12.20
2018-04-19T04:01:04.283Z,12.10
2018-04-19T04:03:32.725Z,12.10
2018-04-19T04:06:01.070Z,11.90
2018-04-19T04:08:28.584Z,11.80
2018-04-19T04:10:56.161Z,11.80
2018-04-19T04:13:23.724Z,11.70
2018-04-19T04:15:51.283Z,11.60
2018-04-19T04:18:30.697Z,11.30
2018-04-19T04:21:11.140Z,11.20
2018-04-19T04:23:51.214Z,11.10
2018-04-19T04:26:19.760Z,11.00
2018-04-19T04:28:47.287Z,11.10
2018-04-19T04:31:14.928Z,11.00
2018-04-19T04:33:42.402Z,11.00
2018-04-19T04:36:10.012Z,11.00
2018-04-19T04:38:37.570Z,11.00
2018-04-19T04:41:05.118Z,11.00
2018-04-19T04:43:33.448Z,10.90
2018-04-19T04:46:00.982Z,10.90
2018-04-19T04:48:29.500Z,10.80
2018-04-19T04:50:57.029Z,10.80
2018-04-19T04:53:25.477Z,10.80
2018-04-19T04:55:53.810Z,10.90
2018-04-19T04:58:21.357Z,10.80
2018-04-19T05:00:48.898Z,10.70
2018-04-19T05:03:16.476Z,10.60
2018-04-19T05:05:44.085Z,10.60
2018-04-19T05:08:11.618Z,10.60
2018-04-19T05:10:39.176Z,10.70
2018-04-19T05:13:06.737Z,10.80
2018-04-19T05:15:34.321Z,10.90
2018-04-19T05:18:01.876Z,11.10
2018-04-19T05:20:29.404Z,11.20
2018-04-19T05:22:56.967Z,11.30
2018-04-19T05:25:24.492Z,11.40
2018-04-19T05:27:52.413Z,11.50
2018-04-19T05:30:19.944Z,11.60
2018-04-19T05:32:47.480Z,11.60
2018-04-19T05:35:15.063Z,11.60
2018-04-19T05:37:42.584Z,11.70
2018-04-19T05:40:10.361Z,11.90
2018-04-19T05:42:37.885Z,12.00
2018-04-19T05:45:05.630Z,12.10
2018-04-19T05:47:33.160Z,12.30
2018-04-19T05:50:00.688Z,12.60
2018-04-19T05:52:30.019Z,12.90
2018-04-19T05:54:57.572Z,12.90
2018-04-19T05:57:25.144Z,13.10
2018-04-19T05:59:52.669Z,13.30
2018-04-19T06:02:20.240Z,13.40
2018-04-19T06:04:47.756Z,13.50
2018-04-19T06:07:15.284Z,13.60
2018-04-19T06:09:42.851Z,13.70
2018-04-19T06:12:10.382Z,13.80
2018-04-19T06:14:39.900Z,13.90
2018-04-19T06:17:07.445Z,14.00
2018-04-19T06:19:35.016Z,14.00
2018-04-19T06:22:02.555Z,14.10
2018-04-19T06:24:30.112Z,14.20
2018-04-19T06:26:57.646Z,14.40
2018-04-19T06:29:25.172Z,14.50
2018-04-19T06:31:53.702Z,14.70
2018-04-19T06:34:21.257Z,14.90
2018-04-19T06:36:48.888Z,15.10
2018-04-19T06:39:16.525Z,15.30
2018-04-19T06:41:44.045Z,15.40
2018-04-19T06:44:12.604Z,15.60
2018-04-19T06:46:40.911Z,15.90
2018-04-19T06:49:08.468Z,15.90
2018-04-19T06:51:36.000Z,16.10
2018-04-19T06:54:03.548Z,16.10
2018-04-19T06:56:31.108Z,16.30
2018-04-19T06:58:59.417Z,16.70
2018-04-19T07:01:26.977Z,16.70
2018-04-19T07:03:54.505Z,16.90
2018-04-19T07:06:22.075Z,16.90
2018-04-19T07:08:49.621Z,17.10
2018-04-19T07:11:18.092Z,17.10
2018-04-19T07:13:45.652Z,17.30
2018-04-19T07:16:13.173Z,17.50
2018-04-19T07:18:40.686Z,17.50
2018-04-19T07:21:09.029Z,17.70
2018-04-19T07:23:36.557Z,17.70
2018-04-19T07:26:04.129Z,17.80
2018-04-19T07:28:31.664Z,18.00
2018-04-19T07:30:59.184Z,18.10
2018-04-19T07:33:27.497Z,18.40
2018-04-19T07:35:55.019Z,18.30
2018-04-19T07:38:22.597Z,18.50
2018-04-19T07:40:50.885Z,18.60
2018-04-19T07:43:18.413Z,18.60
2018-04-19T07:45:45.987Z,18.80
2018-04-19T07:48:14.281Z,19.30
2018-04-19T07:50:41.861Z,19.30
2018-04-19T07:53:09.604Z,19.40
2018-04-19T07:55:37.185Z,19.40
2018-04-19T07:58:06.176Z,19.20
2018-04-19T08:00:33.701Z,19.30
2018-04-19T08:03:02.036Z,19.40
2018-04-19T08:05:30.796Z,19.40
2018-04-19T08:07:58.344Z,19.60
2018-04-19T08:10:25.889Z,19.60
2018-04-19T08:12:53.437Z,19.60
2018-04-19T08:15:21.730Z,19.70
2018-04-19T08:17:49.260Z,19.70
2018-04-19T08:20:16.895Z,20.00
2018-04-19T08:22:44.409Z,20.20
2018-04-19T08:25:12.729Z,20.50
2018-04-19T08:27:40.291Z,20.50
2018-04-19T08:30:07.851Z,20.70
2018-04-19T08:32:35.565Z,20.80
2018-04-19T08:35:03.085Z,20.90
2018-04-19T08:37:30.675Z,20.50
2018-04-19T08:39:58.969Z,20.30
2018-04-19T08:42:28.473Z,20.30
2018-04-19T08:44:56.004Z,20.10
2018-04-19T08:47:24.504Z,20.30
2018-04-19T08:49:52.062Z,20.20
2018-04-19T08:52:19.607Z,20.10
2018-04-19T08:54:47.160Z,20.40
2018-04-19T08:57:14.677Z,20.70
2018-04-19T08:59:42.239Z,20.90
2018-04-19T09:02:10.118Z,21.10
2018-04-19T09:04:37.677Z,20.80
2018-04-19T09:07:05.208Z,21.10
2018-04-19T09:09:32.782Z,21.10
2018-04-19T09:12:00.353Z,21.10
2018-04-19T09:14:27.903Z,21.20
2018-04-19T09:16:55.463Z,21.50
2018-04-19T09:19:22.988Z,21.70
2018-04-19T09:21:50.548Z,21.70
2018-04-19T09:24:18.113Z,21.80
2018-04-19T09:26:45.713Z,22.00
2018-04-19T09:29:13.323Z,22.00
2018-04-19T09:31:40.860Z,21.60
2018-04-19T09:34:09.171Z,21.80
2018-04-19T09:36:36.767Z,21.80
2018-04-19T09:39:04.310Z,21.60
2018-04-19T09:41:31.905Z,21.70
2018-04-19T09:43:59.465Z,21.70
2018-04-19T09:46:26.999Z,21.60
2018-04-19T09:48:54.553Z,21.80
2018-04-19T09:51:23.065Z,21.90
2018-04-19T09:53:50.689Z,22.10
2018-04-19T09:56:18.173Z,22.20
2018-04-19T09:58:45.751Z,21.90
2018-04-19T10:01:13.297Z,22.00
2018-04-19T10:03:46.545Z,22.60
2018-04-19T10:06:14.108Z,22.60
2018-04-19T10:08:41.653Z,22.90
2018-04-19T10:11:09.238Z,23.00
2018-04-19T10:13:36.749Z,23.30
2018-04-19T10:16:05.115Z,23.20
2018-04-19T10:18:32.641Z,23.20
2018-04-19T10:21:01.137Z,22.80
2018-04-19T10:23:28.685Z,22.80
2018-04-19T10:25:56.231Z,22.80
2018-04-19T10:28:24.764Z,22.90
2018-04-19T10:30:52.300Z,22.90
2018-04-19T10:33:19.854Z,22.90
2018-04-19T10:35:48.332Z,23.00
2018-04-19T10:38:15.868Z,23.00
2018-04-19T10:40:43.443Z,23.40
2018-04-19T10:43:15.745Z,23.70
2018-04-19T10:45:43.309Z,23.90
2018-04-19T10:48:10.857Z,24.10
2018-04-19T10:50:38.468Z,24.20
2018-04-19T10:53:06.011Z,23.90
2018-04-19T10:55:33.569Z,23.80
2018-04-19T10:58:01.129Z,23.80
2018-04-19T11:00:28.652Z,24.00
2018-04-19T11:02:56.204Z,24.10
2018-04-19T11:05:23.754Z,23.90
2018-04-19T11:07:52.274Z,23.90
2018-04-19T11:10:19.836Z,24.00
2018-04-19T11:12:48.153Z,24.50
2018-04-19T11:15:15.712Z,24.50
2018-04-19T11:17:43.517Z,24.80
2018-04-19T11:20:11.861Z,24.80
2018-04-19T11:22:39.392Z,24.80
2018-04-19T11:25:06.952Z,25.20
2018-04-19T11:27:35.447Z,25.30
2018-04-19T11:30:03.189Z,25.20
2018-04-19T11:32:30.757Z,25.00
2018-04-19T11:34:58.394Z,25.20
2018-04-19T11:37:25.966Z,25.40
2018-04-19T11:39:53.490Z,25.70
2018-04-19T11:42:21.049Z,25.90
2018-04-19T11:44:49.341Z,26.30
2018-04-19T11:47:16.888Z,26.30
2018-04-19T11:49:45.473Z,26.20
2018-04-19T11:52:13.765Z,26.40
2018-04-19T11:54:41.355Z,26.40
2018-04-19T11:57:08.898Z,26.50
2018-04-19T11:59:36.441Z,26.70
2018-04-19T12:02:03.980Z,26.30
2018-04-19T12:04:31.523Z,26.50
2018-04-19T12:07:01.917Z,26.90
2018-04-19T12:09:29.479Z,26.80
2018-04-19T12:11:58.073Z,27.00
2018-04-19T12:14:25.628Z,26.80
2018-04-19T12:16:54.153Z,27.10
2018-04-19T12:19:21.704Z,27.20
2018-04-19T12:21:50.992Z,27.30
2018-04-19T12:24:20.969Z,27.20
2018-04-19T12:26:49.486Z,27.40
2018-04-19T12:29:18.004Z,27.30
2018-04-19T12:31:46.309Z,28.00
2018-04-19T12:34:15.817Z,28.00
2018-04-19T12:36:43.345Z,28.30
2018-04-19T12:39:10.888Z,28.00
2018-04-19T12:41:38.438Z,27.70
2018-04-19T12:44:06.937Z,27.30
2018-04-19T12:46:34.509Z,27.10
2018-04-19T12:49:02.078Z,27.50
2018-04-19T12:51:29.629Z,28.20
2018-04-19T12:53:57.157Z,28.00
2018-04-19T12:56:24.731Z,28.40
2018-04-19T12:58:52.276Z,28.30
2018-04-19T13:01:19.800Z,28.10
2018-04-19T13:03:47.574Z,27.40
2018-04-19T13:06:15.109Z,28.10
2018-04-19T13:08:42.670Z,28.50
2018-04-19T13:11:10.201Z,29.10
2018-04-19T13:13:37.721Z,28.60
2018-04-19T13:16:05.285Z,28.20
2018-04-19T13:18:32.828Z,28.10
2018-04-19T13:21:00.409Z,28.00
2018-04-19T13:23:27.938Z,28.70
2018-04-19T13:25:55.493Z,29.50
2018-04-19T13:28:23.037Z,29.90
2018-04-19T13:30:50.583Z,29.70
2018-04-19T13:33:18.141Z,29.50
2018-04-19T13:35:45.669Z,29.20
2018-04-19T13:38:13.223Z,29.30
2018-04-19T13:40:40.769Z,30.10
2018-04-19T13:43:08.321Z,30.80
2018-04-19T13:45:35.857Z,30.90
2018-04-19T13:48:03.379Z,30.40
2018-04-19T13:50:31.688Z,30.40
2018-04-19T13:52:59.235Z,30.40
2018-04-19T13:55:26.789Z,30.80
2018-04-19T13:57:54.333Z,31.20
2018-04-19T14:00:21.896Z,31.50
2018-04-19T14:02:49.432Z,31.40
2018-04-19T14:05:16.953Z,31.40
2018-04-19T14:07:44.500Z,31.20
2018-04-19T14:10:13.001Z,31.90
2018-04-19T14:12:40.545Z,32.70
2018-04-19T14:15:08.077Z,32.70
2018-04-19T14:17:35.624Z,32.30
2018-04-19T14:20:03.140Z,31.90
2018-04-19T14:22:35.116Z,31.60
2018-04-19T14:25:02.677Z,31.50
2018-04-19T14:27:30.215Z,31.60
2018-04-19T14:29:57.764Z,32.20
2018-04-19T14:32:25.299Z,32.60
2018-04-19T14:34:52.849Z,32.90
2018-04-19T14:37:21.138Z,30.90
2018-04-19T14:39:49.620Z,30.90
2018-04-19T14:42:17.166Z,30.00
2018-04-19T14:44:45.455Z,31.50
2018-04-19T14:47:13.021Z,31.50
2018-04-19T14:49:40.551Z,31.60
2018-04-19T14:52:08.109Z,32.10
2018-04-19T14:54:35.636Z,32.60
2018-04-19T14:57:03.166Z,32.80
2018-04-19T14:59:31.686Z,33.40
2018-04-19T15:01:59.212Z,33.90
2018-04-19T15:04:26.770Z,34.20
2018-04-19T15:06:54.293Z,34.40
2018-04-19T15:09:23.619Z,33.20
2018-04-19T15:11:51.876Z,33.10
2018-04-19T15:14:19.431Z,33.00
2018-04-19T15:16:47.005Z,33.90
2018-04-19T15:19:14.533Z,35.80
2018-04-19T15:21:42.099Z,37.20
2018-04-19T15:24:10.397Z,38.60
2018-04-19T15:26:37.957Z,38.60
2018-04-19T15:29:05.502Z,38.40
2018-04-19T15:31:33.832Z,37.90
2018-04-19T15:34:01.404Z,37.90
2018-04-19T15:36:28.935Z,38.30
2018-04-19T15:38:56.488Z,38.20
2018-04-19T15:41:24.011Z,38.10
2018-04-19T15:43:51.576Z,38.30
2018-04-19T15:46:19.113Z,38.40
2018-04-19T15:48:47.605Z,37.40
2018-04-19T15:51:15.313Z,37.70
2018-04-19T15:53:42.860Z,37.50
2018-04-19T15:56:10.464Z,37.80
2018-04-19T15:58:37.991Z,38.20
2018-04-19T16:01:06.510Z,38.40
2018-04-19T16:03:34.230Z,38.10
2018-04-19T16:06:01.777Z,38.30
2018-04-19T16:08:29.356Z,37.30
2018-04-19T16:10:56.893Z,37.60
2018-04-19T16:13:24.448Z,37.60
2018-04-19T16:15:51.971Z,38.00
2018-04-19T16:18:20.984Z,37.00
2018-04-19T16:20:48.553Z,36.70
2018-04-19T16:23:17.048Z,34.60
2018-04-19T16:25:44.605Z,32.90
2018-04-19T16:28:12.167Z,31.80
2018-04-19T16:30:41.428Z,30.30
2018-04-19T16:33:08.952Z,30.20
2018-04-19T16:35:36.511Z,29.90
2018-04-19T16:38:04.037Z,29.50
2018-04-19T16:40:32.508Z,29.10
2018-04-19T16:43:00.830Z,28.30
2018-04-19T16:45:28.376Z,28.30
2018-04-19T16:47:55.930Z,28.10
2018-04-19T16:50:23.455Z,27.90
2018-04-19T16:52:51.020Z,27.70
2018-04-19T16:55:18.549Z,27.50
2018-04-19T16:57:46.845Z,27.20
2018-04-19T17:00:14.437Z,27.20
2018-04-19T17:02:42.009Z,27.00
2018-04-19T17:05:10.556Z,26.80
2018-04-19T17:07:38.075Z,26.70
2018-04-19T17:10:06.027Z,26.50
2018-04-19T17:12:33.579Z,26.50
2018-04-19T17:15:01.125Z,26.40
2018-04-19T17:17:28.688Z,26.20
2018-04-19T17:19:56.234Z,26.10
2018-04-19T17:22:23.783Z,26.00
2018-04-19T17:24:51.320Z,25.80
2018-04-19T17:27:19.649Z,25.20
2018-04-19T17:29:47.177Z,25.20
2018-04-19T17:32:14.736Z,25.00
2018-04-19T17:34:42.295Z,24.70
2018-04-19T17:37:09.823Z,24.50
2018-04-19T17:39:37.423Z,24.30
2018-04-19T17:42:05.937Z,24.10
2018-04-19T17:44:33.508Z,23.90
2018-04-19T17:47:01.041Z,23.60
2018-04-19T17:49:28.569Z,23.40
2018-04-19T17:51:56.892Z,23.10
2018-04-19T17:54:24.416Z,23.00
2018-04-19T17:56:52.015Z,22.90
2018-04-19T17:59:19.555Z,22.70
2018-04-19T18:01:47.112Z,22.50
2018-04-19T18:04:14.654Z,22.30
2018-04-19T18:06:42.201Z,22.20
2018-04-19T18:09:09.769Z,22.00
2018-04-19T18:11:37.311Z,21.90
2018-04-19T18:14:05.637Z,21.50
2018-04-19T18:16:33.173Z,21.50
2018-04-19T18:19:00.725Z,21.40
2018-04-19T18:21:28.287Z,21.10
2018-04-19T18:23:55.825Z,21.00
2018-04-19T18:26:24.158Z,20.60
2018-04-19T18:28:52.859Z,20.60
2018-04-19T18:31:21.183Z,20.50
2018-04-19T18:33:48.701Z,20.50
2018-04-19T18:36:16.296Z,20.40
2018-04-19T18:38:43.823Z,20.20
2018-04-19T18:41:11.360Z,20.10
2018-04-19T18:43:38.936Z,20.00
2018-04-19T18:46:07.240Z,20.00
2018-04-19T18:48:36.594Z,19.90
2018-04-19T18:51:04.126Z,19.90
2018-04-19T18:53:31.685Z,19.80
2018-04-19T18:55:59.245Z,19.70
2018-04-19T18:58:26.789Z,19.70
2018-04-19T19:00:54.399Z,19.70
2018-04-19T19:03:21.923Z,19.70
2018-04-19T19:05:49.476Z,19.60
2018-04-19T19:08:17.016Z,19.60
2018-04-19T19:10:45.579Z,19.50
2018-04-19T19:13:13.097Z,19.50
2018-04-19T19:19:00.795Z,19.50
2018-04-19T19:21:30.248Z,19.30
2018-04-19T19:23:58.827Z,19.20
2018-04-19T19:26:26.338Z,19.20
2018-04-19T19:28:53.870Z,19.20
2018-04-19T19:31:21.433Z,19.20
2018-04-19T19:33:49.007Z,19.20
2018-04-19T19:36:16.534Z,19.10
2018-04-19T19:38:44.096Z,19.10
2018-04-19T19:41:11.628Z,19.10
2018-04-19T19:43:40.148Z,19.00
2018-04-19T19:46:07.699Z,19.10
2018-04-19T19:48:35.223Z,19.20
2018-04-19T19:51:02.805Z,19.10
2018-04-19T19:53:30.345Z,19.00
2018-04-19T19:55:57.920Z,18.90
2018-04-19T19:58:25.536Z,18.90
2018-04-19T20:00:54.114Z,18.90
2018-04-19T20:03:21.679Z,18.90
2018-04-19T20:05:50.026Z,18.70
2018-04-19T20:08:17.599Z,18.70
2018-04-19T20:10:45.137Z,18.60
2018-04-19T20:13:12.694Z,18.40
2018-04-19T20:15:41.005Z,18.40
2018-04-19T20:18:08.600Z,18.30
2018-04-19T20:20:36.134Z,18.30
2018-04-19T20:23:05.637Z,18.30
2018-04-19T20:25:33.178Z,18.30
2018-04-19T20:28:00.714Z,18.30
2018-04-19T20:30:28.274Z,18.30
2018-04-19T20:32:55.814Z,18.20
2018-04-19T20:35:23.384Z,18.20
2018-04-19T20:37:51.925Z,18.20
2018-04-19T20:40:19.484Z,18.20
2018-04-19T20:42:47.775Z,18.20
2018-04-19T20:45:15.310Z,18.20
2018-04-19T20:47:42.878Z,18.10
2018-04-19T20:50:10.451Z,17.90
2018-04-19T20:52:38.016Z,17.80
2018-04-19T20:55:06.285Z,17.70
2018-04-19T20:57:33.844Z,17.70
2018-04-19T21:00:01.377Z,17.60
2018-04-19T21:02:29.691Z,17.50
2018-04-19T21:04:57.266Z,17.50
2018-04-19T21:07:24.822Z,17.40
2018-04-19T21:09:52.401Z,17.30
2018-04-19T21:12:19.935Z,17.30
2018-04-19T21:14:47.491Z,17.20
2018-04-19T21:17:15.149Z,17.10
2018-04-19T21:19:42.715Z,16.90
2018-04-19T21:22:11.206Z,16.90
2018-04-19T21:24:38.961Z,16.80
2018-04-19T21:27:08.450Z,16.80
2018-04-19T21:29:36.151Z,16.60
2018-04-19T21:32:04.709Z,16.50
2018-04-19T21:34:32.244Z,16.50
2018-04-19T21:37:00.731Z,16.40
2018-04-19T21:39:28.265Z,16.30
2018-04-19T21:41:55.808Z,16.10
2018-04-19T21:44:23.377Z,15.90
2018-04-19T21:46:50.905Z,15.80
2018-04-19T21:49:18.452Z,15.80
2018-04-19T21:51:45.979Z,15.70
2018-04-19T21:54:13.520Z,15.70
2018-04-19T21:56:41.053Z,15.70
2018-04-19T21:59:08.574Z,15.60
2018-04-19T22:01:37.245Z,15.60
2018-04-19T22:04:04.777Z,15.60
2018-04-19T22:06:33.099Z,15.60
2018-04-19T22:09:01.625Z,15.60
2018-04-19T22:11:30.178Z,15.40
2018-04-19T22:13:57.715Z,15.40
2018-04-19T22:16:25.240Z,15.50
2018-04-19T22:18:52.803Z,15.50
2018-04-19T22:21:20.334Z,15.40
2018-04-19T22:23:47.890Z,15.30
2018-04-19T22:26:15.429Z,15.20
2018-04-19T22:28:42.982Z,15.20
2018-04-19T22:31:10.531Z,15.20
2018-04-19T22:33:38.153Z,15.20
2018-04-19T22:36:06.301Z,15.10
2018-04-19T22:38:33.842Z,15.10
2018-04-19T22:41:01.509Z,15.10
2018-04-19T22:43:29.046Z,15.10
2018-04-19T22:45:56.602Z,15.10
2018-04-19T22:48:24.141Z,15.00
2018-04-19T22:50:51.685Z,15.10
2018-04-19T22:53:20.021Z,15.00
2018-04-19T22:55:47.545Z,15.00
2018-04-19T22:58:15.120Z,14.90
2018-04-19T23:00:42.648Z,14.70
2018-04-19T23:03:10.964Z,14.60
2018-04-19T23:05:38.588Z,14.60
2018-04-19T23:08:06.896Z,14.50
2018-04-19T23:10:35.412Z,14.50
2018-04-19T23:13:03.707Z,14.30
2018-04-19T23:15:31.255Z,14.30
2018-04-19T23:17:59.751Z,14.40
2018-04-19T23:20:29.076Z,14.10
2018-04-19T23:22:56.608Z,14.10
2018-04-19T23:25:24.120Z,14.20
2018-04-19T23:27:51.675Z,14.20
2018-04-19T23:30:19.202Z,14.30
2018-04-19T23:32:46.769Z,14.20
2018-04-19T23:35:14.303Z,14.30
2018-04-19T23:37:41.930Z,14.30
2018-04-19T23:40:09.452Z,14.30
2018-04-19T23:42:37.959Z,14.20
2018-04-19T23:45:06.222Z,14.20
2018-04-19T23:47:33.802Z,14.00
2018-04-19T23:50:01.354Z,14.00
2018-04-19T23:52:29.883Z,13.90
2018-04-19T23:54:58.205Z,13.90
2018-04-19T23:57:25.740Z,13.80
2018-04-19T23:59:54.244Z,13.80
